Time;durP1;ratioP1;P1;durP2;ratioP2;P2;SDS_P1;SDS_P2;PMS_P1;PMS_P2;Temp;Humidity;BMP_temperature;BMP_pressure;BME280_temperature;BME280_humidity;BME280_pressure;Samples;Min_cycle;Max_cycle;Signal;HPM_P1;HPM_P2
2022/04/16 00:01:41;;;;;;;2.47;2.10;;;18.70;59.70;;;;;;5120004;27;48303;-79
2022/04/16 00:04:08;;;;;;;3.45;2.08;;;18.80;59.80;;;;;;5117807;27;45307;-79
2022/04/16 00:06:34;;;;;;;2.53;1.90;;;18.80;59.80;;;;;;5121404;27;45273;-79
2022/04/16 00:09:01;;;;;;;2.00;1.60;;;18.80;59.80;;;;;;5118164;27;45367;-79
2022/04/16 00:11:28;;;;;;;3.47;2.05;;;18.80;59.90;;;;;;5117289;27;45366;-79
2022/04/16 00:13:56;;;;;;;3.15;2.00;;;18.80;60.80;;;;;;5117338;27;45408;-79
2022/04/16 00:16:23;;;;;;;2.50;2.08;;;18.70;59.60;;;;;;5122469;27;45465;-79
2022/04/16 00:18:50;;;;;;;2.40;1.90;;;18.70;59.50;;;;;;5115450;27;46176;-79
2022/04/16 00:21:17;;;;;;;2.55;1.85;;;18.70;59.50;;;;;;5122480;27;47986;-79
2022/04/16 00:23:44;;;;;;;2.83;1.92;;;18.70;59.50;;;;;;5118964;27;47910;-79
2022/04/16 00:26:12;;;;;;;2.50;1.75;;;18.70;59.60;;;;;;5115556;27;45283;-79
2022/04/16 00:28:39;;;;;;;3.08;1.80;;;18.70;59.60;;;;;;5115674;27;45293;-79
2022/04/16 00:31:07;;;;;;;2.97;2.10;;;18.70;59.70;;;;;;5117171;27;47067;-78
2022/04/16 00:33:34;;;;;;;2.65;2.00;;;18.70;59.70;;;;;;5117607;27;46341;-79
2022/04/16 00:36:01;;;;;;;2.85;2.25;;;18.70;59.60;;;;;;5111737;27;45226;-79
2022/04/16 00:38:28;;;;;;;3.03;1.73;;;18.70;59.60;;;;;;5121056;27;45195;-78
2022/04/16 00:40:55;;;;;;;2.58;1.90;;;18.70;59.80;;;;;;5126171;27;46607;-79
2022/04/16 00:43:23;;;;;;;2.65;2.00;;;18.70;60.30;;;;;;5126502;27;45388;-79
2022/04/16 00:45:49;;;;;;;2.20;1.77;;;18.70;59.80;;;;;;5123384;27;45322;-79
2022/04/16 00:48:18;;;;;;;2.67;2.20;;;18.70;59.80;;;;;;5128559;27;45308;-79
2022/04/16 00:50:45;;;;;;;2.72;2.20;;;18.70;60.00;;;;;;5124682;27;46425;-78
2022/04/16 00:53:12;;;;;;;2.13;1.85;;;18.70;60.00;;;;;;5129200;27;45164;-79
2022/04/16 00:55:40;;;;;;;2.42;1.77;;;18.70;59.80;;;;;;5128646;27;45217;-79
2022/04/16 00:58:07;;;;;;;2.75;2.20;;;18.70;59.80;;;;;;5126550;27;45301;-79
2022/04/16 01:00:34;;;;;;;3.97;2.40;;;18.70;59.80;;;;;;5118177;27;47163;-79
2022/04/16 01:03:01;;;;;;;3.13;2.05;;;18.70;59.60;;;;;;5119019;27;45158;-78
2022/04/16 01:05:30;;;;;;;2.67;1.90;;;18.70;59.80;;;;;;5121336;27;45341;-79
2022/04/16 01:07:58;;;;;;;3.05;2.15;;;18.70;60.00;;;;;;5117223;27;45277;-79
2022/04/16 01:10:27;;;;;;;2.75;1.92;;;18.70;60.00;;;;;;5126654;27;45273;-79
2022/04/16 01:12:54;;;;;;;2.90;2.17;;;18.70;59.80;;;;;;5128582;27;45238;-78
2022/04/16 01:15:21;;;;;;;3.63;2.22;;;18.60;59.70;;;;;;5115101;27;45215;-78
2022/04/16 01:17:48;;;;;;;2.55;1.98;;;18.60;60.00;;;;;;5128682;27;45496;-79
2022/04/16 01:20:16;;;;;;;3.00;2.10;;;18.60;59.70;;;;;;5125326;27;46447;-78
2022/04/16 01:22:45;;;;;;;2.53;2.10;;;18.60;59.80;;;;;;5126210;27;45217;-79
2022/04/16 01:25:12;;;;;;;2.38;1.92;;;18.60;60.00;;;;;;5128240;27;45725;-79
2022/04/16 01:27:43;;;;;;;2.72;2.10;;;18.60;59.90;;;;;;5125923;27;45456;-79
2022/04/16 01:30:11;;;;;;;3.65;2.20;;;18.70;60.00;;;;;;5126451;27;46644;-79
2022/04/16 01:32:38;;;;;;;2.38;1.83;;;18.70;59.80;;;;;;5125471;27;45191;-79
2022/04/16 01:35:06;;;;;;;2.70;1.85;;;18.70;59.80;;;;;;5125213;27;45321;-79
2022/04/16 01:37:34;;;;;;;2.28;2.00;;;18.70;59.90;;;;;;5118443;27;45436;-79
2022/04/16 01:40:04;;;;;;;2.30;1.95;;;18.70;60.10;;;;;;5123002;27;45563;-79
2022/04/16 01:42:32;;;;;;;2.25;1.98;;;18.70;60.10;;;;;;5126213;27;45709;-79
2022/04/16 01:45:00;;;;;;;2.90;2.30;;;18.70;59.90;;;;;;5125339;27;45431;-79
2022/04/16 01:47:27;;;;;;;3.08;1.92;;;18.70;59.70;;;;;;5118427;27;45464;-79
2022/04/16 01:49:54;;;;;;;3.67;2.08;;;18.90;59.10;;;;;;5123413;27;45427;-79
2022/04/16 01:52:21;;;;;;;2.22;2.00;;;18.70;59.80;;;;;;5127841;27;45382;-78
2022/04/16 01:54:48;;;;;;;4.63;2.38;;;18.70;59.90;;;;;;5120285;27;45541;-79
2022/04/16 01:57:18;;;;;;;2.95;2.17;;;18.70;59.60;;;;;;5127411;27;45383;-79
2022/04/16 01:59:45;;;;;;;2.35;2.03;;;18.60;59.70;;;;;;5128091;27;46168;-79
2022/04/16 02:02:12;;;;;;;2.60;2.40;;;18.70;59.70;;;;;;5137366;27;45480;-78
2022/04/16 02:04:39;;;;;;;3.17;1.90;;;18.60;59.60;;;;;;5116251;27;45254;-79
2022/04/16 02:07:06;;;;;;;3.28;2.47;;;18.60;59.60;;;;;;5127678;27;45824;-79
2022/04/16 02:09:33;;;;;;;3.28;2.40;;;18.60;59.50;;;;;;5126186;27;46527;-79
2022/04/16 02:12:00;;;;;;;3.03;2.10;;;18.60;59.20;;;;;;5125347;27;45174;-78
2022/04/16 02:14:28;;;;;;;3.20;2.15;;;18.70;59.40;;;;;;5129021;27;45340;-79
2022/04/16 02:16:57;;;;;;;3.10;1.98;;;18.60;59.20;;;;;;5126659;27;45230;-79
2022/04/16 02:19:24;;;;;;;2.65;2.20;;;18.70;59.50;;;;;;5128867;27;47556;-79
2022/04/16 02:21:51;;;;;;;2.35;1.75;;;18.70;59.40;;;;;;5129116;27;45271;-79
2022/04/16 02:24:18;;;;;;;3.15;2.25;;;18.70;59.20;;;;;;5129289;27;45300;-79
2022/04/16 02:26:45;;;;;;;2.55;2.08;;;18.70;59.20;;;;;;5124542;27;45277;-79
2022/04/16 02:29:12;;;;;;;2.97;2.10;;;18.70;59.30;;;;;;5127861;27;46541;-79
2022/04/16 02:31:41;;;;;;;2.17;1.92;;;18.70;59.10;;;;;;5129057;27;45218;-79
2022/04/16 02:34:10;;;;;;;2.70;2.00;;;18.70;59.10;;;;;;5127716;27;45406;-78
2022/04/16 02:36:37;;;;;;;3.20;2.40;;;18.70;58.90;;;;;;5129457;27;45316;-78
2022/04/16 02:39:04;;;;;;;2.70;2.10;;;18.70;58.70;;;;;;5128725;27;47137;-79
2022/04/16 02:41:31;;;;;;;3.75;2.38;;;18.70;58.80;;;;;;5130020;27;45273;-79
2022/04/16 02:43:58;;;;;;;2.40;2.20;;;18.60;58.50;;;;;;5127752;27;45344;-79
2022/04/16 02:49:13;;;;;;;2.78;2.47;;;18.70;58.80;;;;;;5121114;27;45181;-79
2022/04/16 02:51:40;;;;;;;3.42;2.60;;;18.70;58.50;;;;;;5129476;27;45216;-79
2022/04/16 02:54:07;;;;;;;3.08;2.33;;;18.70;58.40;;;;;;5130895;27;45187;-79
2022/04/16 02:56:34;;;;;;;2.53;2.10;;;18.70;58.60;;;;;;5130035;27;45299;-79
2022/04/16 02:59:00;;;;;;;2.60;2.15;;;18.60;58.50;;;;;;5126887;27;47161;-78
2022/04/16 03:01:27;;;;;;;3.15;2.60;;;18.70;58.80;;;;;;5129685;27;45222;-79
2022/04/16 03:03:54;;;;;;;2.72;2.35;;;18.70;58.70;;;;;;5127794;27;45258;-79
2022/04/16 03:06:22;;;;;;;2.47;2.28;;;18.70;58.80;;;;;;5128600;27;45308;-79
2022/04/16 03:08:49;;;;;;;3.25;2.30;;;18.70;58.80;;;;;;5140309;27;47922;-79
2022/04/16 03:11:16;;;;;;;3.97;2.58;;;18.70;58.70;;;;;;5131118;27;45282;-79
2022/04/16 03:13:42;;;;;;;3.47;2.42;;;18.70;58.70;;;;;;5128986;27;45241;-79
2022/04/16 03:18:53;;;;;;;4.22;2.47;;;18.70;57.70;;;;;;5129197;27;45259;-79
2022/04/16 03:21:22;;;;;;;3.78;2.72;;;18.70;56.80;;;;;;5126497;27;45155;-80
2022/04/16 03:23:48;;;;;;;3.00;2.42;;;18.70;56.70;;;;;;5128076;27;45285;-79
2022/04/16 03:26:15;;;;;;;3.45;2.40;;;18.70;56.40;;;;;;5128186;27;45276;-79
2022/04/16 03:28:42;;;;;;;3.78;2.88;;;18.60;56.10;;;;;;5125428;27;45335;-79
2022/04/16 03:31:09;;;;;;;4.55;2.80;;;18.60;55.90;;;;;;5126982;27;45220;-80
2022/04/16 03:33:36;;;;;;;3.00;2.55;;;18.60;55.50;;;;;;5126500;27;45389;-79
2022/04/16 03:36:04;;;;;;;4.00;2.65;;;18.60;55.70;;;;;;5128504;27;45326;-79
2022/04/16 03:38:32;;;;;;;3.13;2.50;;;18.60;55.50;;;;;;5118952;27;46164;-80
2022/04/16 03:40:59;;;;;;;3.85;2.35;;;18.60;55.10;;;;;;5127499;27;45263;-80
2022/04/16 03:43:29;;;;;;;4.75;3.00;;;18.60;55.30;;;;;;5126655;27;45299;-79
2022/04/16 03:45:56;;;;;;;3.90;2.60;;;18.60;55.00;;;;;;5121737;27;45353;-79
2022/04/16 03:48:23;;;;;;;5.22;3.08;;;18.60;55.30;;;;;;5126889;27;47367;-79
2022/04/16 03:50:49;;;;;;;3.72;2.80;;;18.60;55.50;;;;;;5127665;27;45176;-79
2022/04/16 03:53:16;;;;;;;3.60;3.05;;;18.60;55.40;;;;;;5129047;27;45334;-79
2022/04/16 04:01:13;;;;;;;3.50;2.92;;;18.60;55.30;;;;;;5126345;27;45258;-79
2022/04/16 04:03:40;;;;;;;3.45;2.90;;;18.60;54.80;;;;;;5125908;27;45281;-79
2022/04/16 04:06:07;;;;;;;4.90;3.30;;;18.60;55.10;;;;;;5128843;27;45252;-79
2022/04/16 04:08:34;;;;;;;3.85;3.28;;;18.60;54.10;;;;;;5124542;27;46625;-79
2022/04/16 04:11:03;;;;;;;4.88;3.50;;;18.60;54.20;;;;;;5126626;27;45875;-79
2022/04/16 04:13:31;;;;;;;4.15;3.20;;;18.60;53.70;;;;;;5126414;27;45523;-79
2022/04/16 04:15:57;;;;;;;5.53;4.10;;;18.50;53.70;;;;;;5128764;27;45492;-80
2022/04/16 04:18:26;;;;;;;4.78;3.33;;;18.50;53.70;;;;;;5125715;27;46431;-79
2022/04/16 04:20:54;;;;;;;4.93;3.30;;;18.50;53.70;;;;;;5128347;27;45486;-79
2022/04/16 04:23:22;;;;;;;3.30;2.90;;;18.50;53.30;;;;;;5126948;27;45304;-79
2022/04/16 04:25:49;;;;;;;4.93;3.78;;;18.50;53.10;;;;;;5124198;27;46375;-79
2022/04/16 04:28:17;;;;;;;4.40;3.30;;;18.50;53.20;;;;;;5121584;27;46523;-79
2022/04/16 04:30:44;;;;;;;5.07;3.35;;;18.50;52.70;;;;;;5127113;27;45310;-79
2022/04/16 04:33:11;;;;;;;4.57;3.50;;;18.50;53.40;;;;;;5126363;27;45358;-79
2022/04/16 04:35:38;;;;;;;4.70;3.15;;;18.50;53.40;;;;;;5129377;27;45241;-79
2022/04/16 04:38:05;;;;;;;4.72;3.33;;;18.50;53.70;;;;;;5123826;27;46204;-79
2022/04/16 04:40:32;;;;;;;4.28;3.40;;;18.60;53.60;;;;;;5127324;27;45354;-79
2022/04/16 04:42:59;;;;;;;4.60;3.05;;;18.60;52.80;;;;;;5126335;27;45408;-79
2022/04/16 04:45:27;;;;;;;4.20;2.65;;;18.60;53.70;;;;;;5122924;27;45530;-79
2022/04/16 04:47:54;;;;;;;4.28;2.90;;;18.60;53.70;;;;;;5127609;27;46617;-79
2022/04/16 04:50:21;;;;;;;4.47;3.15;;;18.60;52.90;;;;;;5117937;27;45336;-79
2022/04/16 04:52:47;;;;;;;5.25;2.97;;;18.60;52.80;;;;;;5129030;27;45237;-79
2022/04/16 04:55:14;;;;;;;4.95;3.70;;;18.60;52.20;;;;;;5126451;27;45709;-79
2022/04/16 04:57:42;;;;;;;4.53;3.47;;;18.60;54.80;;;;;;5128409;27;45985;-79
2022/04/16 05:00:11;;;;;;;5.22;3.40;;;18.60;54.30;;;;;;5127247;27;45367;-79
2022/04/16 05:02:43;;;;;;;4.95;3.60;;;18.50;53.70;;;;;;5127372;27;45259;-79
2022/04/16 05:05:10;;;;;;;4.32;3.50;;;18.50;52.70;;;;;;5124283;27;45215;-79
2022/04/16 05:07:37;;;;;;;5.45;3.40;;;18.50;52.70;;;;;;5120749;27;46576;-79
2022/04/16 05:10:05;;;;;;;5.22;3.08;;;18.50;52.70;;;;;;5124719;27;45389;-79
2022/04/16 05:12:31;;;;;;;3.75;2.90;;;18.50;52.70;;;;;;5126029;27;45273;-78
2022/04/16 05:14:58;;;;;;;4.20;3.38;;;18.50;52.70;;;;;;5128856;27;45380;-79
2022/04/16 05:17:25;;;;;;;4.15;2.80;;;18.50;52.70;;;;;;5128900;27;45949;-79
2022/04/16 05:19:53;;;;;;;4.32;3.13;;;18.50;54.00;;;;;;5125942;27;45192;-79
2022/04/16 05:22:20;;;;;;;4.72;3.00;;;18.50;54.20;;;;;;5119990;27;45202;-78
2022/04/16 05:24:47;;;;;;;4.18;2.90;;;18.60;54.60;;;;;;5127688;27;45306;-79
2022/04/16 05:27:15;;;;;;;3.60;2.47;;;18.60;54.80;;;;;;5126054;27;45297;-79
2022/04/16 05:30:05;;;;;;;6.38;2.88;;;18.60;55.00;;;;;;5122226;27;45184;-78
2022/04/16 05:32:34;;;;;;;3.60;2.60;;;18.60;55.10;;;;;;5134365;27;45302;-79
2022/04/16 05:35:03;;;;;;;4.95;3.42;;;18.60;55.40;;;;;;5116667;27;45164;-79
2022/04/16 05:37:30;;;;;;;2.92;2.58;;;18.60;55.60;;;;;;5116239;27;45393;-79
2022/04/16 05:39:56;;;;;;;4.72;2.55;;;18.60;55.70;;;;;;5118542;27;45402;-78
2022/04/16 05:42:23;;;;;;;4.95;2.75;;;18.60;55.90;;;;;;5127648;27;45276;-79
2022/04/16 05:44:50;;;;;;;3.40;2.50;;;18.60;56.00;;;;;;5127681;27;45406;-79
2022/04/16 05:47:17;;;;;;;3.80;2.83;;;18.60;56.20;;;;;;5129532;27;46201;-79
2022/04/16 05:49:44;;;;;;;6.03;2.97;;;18.60;56.20;;;;;;5131295;27;45126;-79
2022/04/16 05:52:12;;;;;;;2.85;2.47;;;18.60;56.50;;;;;;5128920;27;45224;-79
2022/04/16 05:54:39;;;;;;;4.10;2.92;;;18.60;56.50;;;;;;5125739;27;45299;-79
2022/04/16 05:57:08;;;;;;;3.30;2.60;;;18.60;56.80;;;;;;5129175;27;47401;-79
2022/04/16 05:59:35;;;;;;;3.50;2.85;;;18.60;57.00;;;;;;5128468;27;45343;-79
2022/04/16 06:02:02;;;;;;;3.45;2.40;;;18.60;57.00;;;;;;5127158;27;46889;-79
2022/04/16 06:04:30;;;;;;;3.60;2.70;;;18.60;57.10;;;;;;5119768;27;45230;-79
2022/04/16 06:06:56;;;;;;;4.40;2.80;;;18.60;57.30;;;;;;5129203;27;47950;-79
2022/04/16 06:09:25;;;;;;;3.92;2.50;;;18.60;57.40;;;;;;5130404;27;45221;-79
2022/04/16 06:11:52;;;;;;;3.05;2.47;;;18.70;57.50;;;;;;5121468;27;45341;-79
2022/04/16 06:14:19;;;;;;;4.30;3.08;;;18.70;57.60;;;;;;5127367;27;46311;-79
2022/04/16 06:16:46;;;;;;;3.25;2.38;;;18.60;57.70;;;;;;5130924;27;47103;-79
2022/04/16 06:19:12;;;;;;;3.75;2.55;;;18.60;57.70;;;;;;5124060;27;45284;-78
2022/04/16 06:21:39;;;;;;;3.65;2.78;;;18.70;58.00;;;;;;5129014;27;45564;-78
2022/04/16 06:24:06;;;;;;;3.92;2.60;;;18.70;58.00;;;;;;5122405;27;45448;-78
2022/04/16 06:26:35;;;;;;;3.15;2.33;;;18.70;58.20;;;;;;5130697;27;47972;-78
2022/04/16 06:29:02;;;;;;;3.60;2.75;;;18.70;58.30;;;;;;5128409;27;45377;-78
2022/04/16 06:31:28;;;;;;;3.17;2.58;;;18.60;58.30;;;;;;5126676;27;45188;-78
2022/04/16 06:33:55;;;;;;;3.22;2.22;;;18.60;58.30;;;;;;5129757;27;46052;-79
2022/04/16 06:36:22;;;;;;;2.88;2.17;;;18.60;58.60;;;;;;5123972;27;46201;-79
2022/04/16 06:38:49;;;;;;;3.90;3.00;;;18.60;58.60;;;;;;5122826;27;45270;-79
2022/04/16 06:41:16;;;;;;;3.42;2.63;;;18.60;58.90;;;;;;5118341;27;45466;-78
2022/04/16 06:43:44;;;;;;;4.15;2.78;;;18.60;59.00;;;;;;5124593;27;45865;-78
2022/04/16 06:46:11;;;;;;;4.13;2.70;;;18.60;59.00;;;;;;5115649;27;45561;-78
2022/04/16 06:48:38;;;;;;;3.40;2.58;;;18.60;59.00;;;;;;5120554;27;45226;-78
2022/04/16 06:51:05;;;;;;;3.22;2.40;;;18.60;59.30;;;;;;5124826;27;45163;-79
2022/04/16 06:53:32;;;;;;;4.05;2.78;;;18.60;59.30;;;;;;5129105;27;45322;-79
2022/04/16 06:56:00;;;;;;;3.20;2.47;;;18.60;59.30;;;;;;5126329;27;46192;-79
2022/04/16 06:58:28;;;;;;;3.78;2.58;;;18.60;59.40;;;;;;5119535;27;45424;-78
2022/04/16 07:00:56;;;;;;;2.55;2.30;;;18.70;59.50;;;;;;5116819;27;46274;-79
2022/04/16 07:03:23;;;;;;;3.13;2.58;;;18.70;59.50;;;;;;5117819;27;46577;-78
2022/04/16 07:05:50;;;;;;;3.03;2.35;;;18.70;59.50;;;;;;5116953;27;46213;-78
2022/04/16 07:08:17;;;;;;;3.22;2.45;;;18.70;59.60;;;;;;5126117;27;45362;-78
2022/04/16 07:10:44;;;;;;;5.00;2.60;;;18.70;59.50;;;;;;5129277;27;45246;-79
2022/04/16 07:13:11;;;;;;;2.95;2.40;;;18.70;59.10;;;;;;5124837;27;46100;-78
2022/04/16 07:15:38;;;;;;;3.60;2.67;;;18.70;58.60;;;;;;5125023;27;46197;-78
2022/04/16 07:18:07;;;;;;;3.72;2.78;;;18.70;58.20;;;;;;5121549;27;46479;-79
2022/04/16 07:20:34;;;;;;;3.65;2.40;;;18.60;58.20;;;;;;5123424;27;46141;-78
2022/04/16 07:23:01;;;;;;;2.88;2.38;;;18.60;58.00;;;;;;5127587;27;45905;-79
2022/04/16 07:25:28;;;;;;;4.03;3.00;;;18.60;57.80;;;;;;5116040;27;45385;-78
2022/04/16 07:27:55;;;;;;;3.95;2.72;;;18.60;57.60;;;;;;5124309;27;45276;-78
2022/04/16 07:30:21;;;;;;;3.58;2.70;;;18.60;57.60;;;;;;5128816;27;45216;-78
2022/04/16 07:32:48;;;;;;;3.75;2.63;;;18.60;57.40;;;;;;5127657;27;45336;-79
2022/04/16 07:35:17;;;;;;;3.45;2.63;;;18.60;57.50;;;;;;5124838;27;45965;-79
2022/04/16 07:37:44;;;;;;;3.50;2.60;;;18.60;57.50;;;;;;5115542;27;45271;-78
2022/04/16 07:40:11;;;;;;;3.05;2.25;;;18.60;58.00;;;;;;5125700;27;45297;-78
2022/04/16 07:42:38;;;;;;;3.05;2.50;;;18.70;58.10;;;;;;5128389;27;45331;-79
2022/04/16 07:45:05;;;;;;;4.00;2.55;;;18.70;58.20;;;;;;5117463;27;45464;-78
2022/04/16 07:47:32;;;;;;;2.95;2.30;;;18.70;58.20;;;;;;5127988;27;45119;-78
2022/04/16 07:49:59;;;;;;;2.67;2.20;;;18.70;58.30;;;;;;5124871;27;45298;-78
2022/04/16 07:52:28;;;;;;;3.00;2.30;;;18.70;58.30;;;;;;5127699;27;45208;-78
2022/04/16 07:54:55;;;;;;;3.65;2.60;;;18.70;58.40;;;;;;5128578;27;47983;-80
2022/04/16 07:57:22;;;;;;;3.80;2.55;;;18.70;58.40;;;;;;5124892;27;45330;-80
2022/04/16 07:59:48;;;;;;;4.32;2.30;;;18.70;59.10;;;;;;5119515;27;45192;-80
2022/04/16 08:02:15;;;;;;;3.55;2.40;;;18.80;59.10;;;;;;5119501;27;45439;-79
2022/04/16 08:04:42;;;;;;;3.50;2.33;;;18.70;58.90;;;;;;5121203;27;45879;-79
2022/04/16 08:07:09;;;;;;;2.97;2.28;;;18.80;58.90;;;;;;5119732;27;45271;-80
2022/04/16 08:09:37;;;;;;;3.90;2.42;;;18.80;58.90;;;;;;5116329;27;45508;-78
2022/04/16 08:12:04;;;;;;;4.55;2.63;;;18.80;58.80;;;;;;5121912;27;45588;-78
2022/04/16 08:14:31;;;;;;;4.00;2.53;;;18.80;58.90;;;;;;5119528;27;47890;-78
2022/04/16 08:16:58;;;;;;;4.95;3.10;;;18.80;58.90;;;;;;5125349;27;45270;-78
2022/04/16 08:19:25;;;;;;;2.90;2.20;;;18.80;58.90;;;;;;5123598;27;45357;-78
2022/04/16 08:21:53;;;;;;;5.60;2.50;;;18.80;58.90;;;;;;5123117;27;45721;-78
2022/04/16 08:24:38;;;;;;;3.65;2.38;;;18.80;58.90;;;;;;5121361;27;47333;-78
2022/04/16 08:27:07;;;;;;;5.63;3.10;;;18.80;58.90;;;;;;5122070;27;45232;-77
2022/04/16 08:29:34;;;;;;;5.75;3.40;;;18.80;59.20;;;;;;5114884;27;45270;-78
2022/04/16 08:32:01;;;;;;;8.02;4.07;;;18.80;59.50;;;;;;5121743;27;45233;-78
2022/04/16 08:34:28;;;;;;;9.70;4.30;;;18.80;59.60;;;;;;5125536;27;46321;-78
2022/04/16 08:36:55;;;;;;;6.43;3.53;;;18.90;59.70;;;;;;5128447;27;45733;-78
2022/04/16 08:39:22;;;;;;;6.60;3.85;;;18.80;59.40;;;;;;5117992;27;45335;-78
2022/04/16 08:41:50;;;;;;;8.02;4.28;;;18.90;59.90;;;;;;5122279;27;45372;-78
2022/04/16 08:44:19;;;;;;;6.75;3.78;;;18.90;60.00;;;;;;5120267;27;47146;-78
2022/04/16 08:46:47;;;;;;;8.00;3.58;;;18.90;60.00;;;;;;5121021;27;45445;-81
2022/04/16 08:49:19;;;;;;;8.18;3.63;;;18.90;60.70;;;;;;5120785;27;46470;-89
2022/04/16 08:52:43;;;;;;;13.73;4.43;;;18.70;62.60;;;;;;5121778;27;45387;-90
2022/04/16 08:55:13;;;;;;;13.48;4.28;;;18.50;56.30;;;;;;5040225;28;47937;-90
2022/04/16 08:58:06;;;;;;;11.85;3.95;;;18.50;65.00;;;;;;5123256;27;45329;-91
2022/04/16 09:04:26;;;;;;;8.73;4.40;;;18.50;60.90;;;;;;5107123;27;45311;-93
2022/04/16 09:09:52;;;;;;;9.93;3.72;;;17.50;80.70;;;;;;5116365;27;45350;-89
2022/04/16 09:12:19;;;;;;;9.23;4.00;;;17.70;59.60;;;;;;5117971;27;45310;-86
2022/04/16 09:14:47;;;;;;;7.30;4.28;;;16.00;63.30;;;;;;5117893;27;45273;-87
2022/04/16 09:17:16;;;;;;;7.35;3.70;;;15.90;63.30;;;;;;5115672;27;47059;-80
2022/04/16 09:23:17;;;;;;;7.30;4.05;;;16.00;65.20;;;;;;5047413;28;45470;-85
2022/04/16 09:25:46;;;;;;;9.25;3.78;;;15.50;65.20;;;;;;5057179;28;45245;-89
2022/04/16 09:28:18;;;;;;;8.35;3.55;;;15.40;76.40;;;;;;5085987;27;47973;-91
2022/04/16 09:30:50;;;;;;;7.35;3.40;;;18.20;70.90;;;;;;5120635;27;45249;-80
2022/04/16 09:33:20;;;;;;;5.63;3.40;;;16.50;63.30;;;;;;5124072;27;45334;-88
2022/04/16 09:36:02;;;;;;;7.00;3.10;;;15.80;75.00;;;;;;5117658;27;45333;-90
2022/04/16 09:38:38;;;;;;;37.72;4.57;;;17.40;72.00;;;;;;5120761;27;46668;-79
2022/04/16 09:41:08;;;;;;;25.95;4.32;;;17.50;67.00;;;;;;5125787;27;45578;-80
2022/04/16 09:43:36;;;;;;;9.75;3.80;;;17.70;77.30;;;;;;5122915;27;45417;-81
2022/04/16 09:46:11;;;;;;;6.25;2.92;;;17.70;63.90;;;;;;5122923;27;45387;-75
2022/04/16 09:48:38;;;;;;;7.80;3.28;;;16.80;62.00;;;;;;5122085;27;45792;-78
2022/04/16 09:51:07;;;;;;;8.20;3.28;;;18.20;72.70;;;;;;5120827;27;45249;-79
2022/04/16 09:53:36;;;;;;;12.60;3.97;;;19.00;68.00;;;;;;5119000;27;45333;-79
2022/04/16 09:56:07;;;;;;;14.88;3.45;;;19.30;68.00;;;;;;5123647;27;45407;-80
2022/04/16 09:58:37;;;;;;;11.43;3.72;;;18.00;64.60;;;;;;5124022;27;46974;-79
2022/04/16 10:01:03;;;;;;;9.93;3.42;;;17.20;60.80;;;;;;5121490;27;45495;-85
2022/04/16 10:03:32;;;;;;;12.23;3.80;;;16.80;62.90;;;;;;5123786;27;46117;-89
2022/04/16 10:06:00;;;;;;;10.00;3.13;;;15.90;62.60;;;;;;5124398;27;45779;-87
2022/04/16 10:08:28;;;;;;;19.02;3.65;;;15.50;64.40;;;;;;5126669;27;45600;-87
2022/04/16 10:10:57;;;;;;;10.20;3.35;;;16.30;63.50;;;;;;5126500;27;45266;-85
2022/04/16 10:13:25;;;;;;;21.35;3.15;;;16.00;64.00;;;;;;5119304;27;45239;-85
2022/04/16 10:16:05;;;;;;;6.80;2.95;;;17.10;74.10;;;;;;5123537;27;45363;-89
2022/04/16 10:18:35;;;;;;;10.75;2.63;;;18.00;55.60;;;;;;5116002;27;48100;-79
2022/04/16 10:21:03;;;;;;;10.52;2.83;;;17.50;68.40;;;;;;5121300;27;45398;-81
2022/04/16 10:23:32;;;;;;;6.80;2.38;;;17.00;69.90;;;;;;5125531;27;45468;-81
2022/04/16 10:26:05;;;;;;;4.28;3.20;;;17.50;65.60;;;;;;5123650;27;45329;-81
2022/04/16 10:28:40;;;;;;;6.68;2.63;;;16.70;56.80;;;;;;5118039;27;46515;-81
2022/04/16 10:31:07;;;;;;;7.88;2.40;;;16.80;68.10;;;;;;5117424;27;45386;-81
2022/04/16 10:33:35;;;;;;;7.22;2.88;;;17.70;64.30;;;;;;5120559;27;45582;-79
2022/04/16 10:36:03;;;;;;;7.90;2.30;;;18.10;55.00;;;;;;5124377;27;45139;-81
2022/04/16 10:38:37;;;;;;;4.40;2.10;;;17.30;66.50;;;;;;5122073;27;47918;-81
2022/04/16 10:41:12;;;;;;;5.22;2.20;;;18.20;61.40;;;;;;5120103;27;45206;-81
2022/04/16 10:43:39;;;;;;;3.20;2.35;;;18.30;60.50;;;;;;5116816;27;45655;-81
2022/04/16 10:46:08;;;;;;;3.80;2.38;;;17.50;63.50;;;;;;5121535;27;45344;-81
2022/04/16 10:48:37;;;;;;;3.08;1.70;;;16.20;62.10;;;;;;5117849;27;45511;-81
2022/04/16 10:51:05;;;;;;;3.40;2.10;;;17.80;62.60;;;;;;5120223;27;45251;-80
2022/04/16 10:53:35;;;;;;;2.70;1.80;;;17.80;61.90;;;;;;5118690;27;45345;-80
2022/04/16 10:56:12;;;;;;;4.70;1.65;;;16.80;56.30;;;;;;5123060;27;45322;-81
2022/04/16 10:58:40;;;;;;;4.45;2.35;;;16.80;56.60;;;;;;5123859;27;46169;-80
2022/04/16 11:01:09;;;;;;;2.75;1.73;;;16.70;63.60;;;;;;5119132;27;45292;-81
2022/04/16 11:03:45;;;;;;;2.95;1.77;;;17.40;62.70;;;;;;5116603;27;45270;-80
2022/04/16 11:06:11;;;;;;;3.63;2.78;;;17.80;61.60;;;;;;5125450;27;45226;-81
2022/04/16 11:08:41;;;;;;;3.28;1.98;;;16.60;56.10;;;;;;5127157;27;46891;-81
2022/04/16 11:11:09;;;;;;;4.35;2.00;;;17.10;64.70;;;;;;5117949;27;45715;-79
2022/04/16 11:13:38;;;;;;;3.33;2.30;;;18.00;60.00;;;;;;5126438;27;45199;-79
2022/04/16 11:16:05;;;;;;;3.67;2.08;;;16.70;58.60;;;;;;5126017;27;45510;-80
2022/04/16 11:18:44;;;;;;;2.83;2.40;;;17.40;62.20;;;;;;5126354;27;46408;-80
2022/04/16 11:21:13;;;;;;;3.22;2.10;;;17.10;55.40;;;;;;5128710;27;45533;-80
2022/04/16 11:23:43;;;;;;;4.20;2.17;;;17.00;63.30;;;;;;5127873;27;45278;-81
2022/04/16 11:34:26;;;;;;;3.38;2.20;;;16.90;64.00;;;;;;5121912;27;45268;-81
2022/04/16 11:36:53;;;;;;;3.28;1.88;;;16.30;55.90;;;;;;5118090;27;45367;-81
2022/04/16 11:39:23;;;;;;;2.53;1.63;;;17.10;56.40;;;;;;5120690;27;45410;-79
2022/04/16 11:41:52;;;;;;;2.20;1.58;;;17.90;60.20;;;;;;5125529;27;45300;-79
2022/04/16 11:44:30;;;;;;;1.58;1.42;;;18.40;52.60;;;;;;5125112;27;45251;-80
2022/04/16 11:46:59;;;;;;;2.13;1.70;;;17.10;60.10;;;;;;5116333;27;45538;-80
2022/04/16 11:49:26;;;;;;;2.85;1.70;;;17.00;61.70;;;;;;5121728;27;46183;-80
2022/04/16 11:51:53;;;;;;;2.92;1.70;;;16.70;59.10;;;;;;5129164;27;45282;-81
2022/04/16 11:54:29;;;;;;;2.42;1.55;;;17.60;61.10;;;;;;5126911;27;45150;-82
2022/04/16 11:56:56;;;;;;;2.47;1.50;;;18.40;57.70;;;;;;5125810;27;45257;-80
2022/04/16 11:59:24;;;;;;;3.72;2.33;;;18.50;56.70;;;;;;5123019;27;46961;-81
2022/04/16 12:01:57;;;;;;;2.10;1.70;;;17.30;52.90;;;;;;5123452;27;45432;-80
2022/04/16 12:04:42;;;;;;;3.40;2.30;;;16.20;55.30;;;;;;5115330;27;45220;-81
2022/04/16 12:07:14;;;;;;;2.70;1.90;;;16.50;57.50;;;;;;5122962;27;45332;-81
2022/04/16 12:09:47;;;;;;;3.30;2.03;;;16.30;57.80;;;;;;5126179;27;47182;-80
2022/04/16 12:12:16;;;;;;;2.20;1.83;;;16.80;61.90;;;;;;5119513;27;45888;-81
2022/04/16 12:14:47;;;;;;;3.40;2.30;;;17.10;53.90;;;;;;5128202;27;45266;-79
2022/04/16 12:17:22;;;;;;;3.33;2.38;;;16.40;56.10;;;;;;5122890;27;45285;-80
2022/04/16 12:19:57;;;;;;;7.57;2.75;;;16.00;61.30;;;;;;5125031;27;47287;-79
2022/04/16 12:22:24;;;;;;;2.63;2.03;;;15.90;59.20;;;;;;5119711;27;45371;-81
2022/04/16 12:24:52;;;;;;;1.95;1.73;;;16.50;62.40;;;;;;5128615;27;45325;-82
2022/04/16 12:27:26;;;;;;;3.88;1.90;;;17.90;57.40;;;;;;5126638;27;45281;-81
2022/04/16 12:29:55;;;;;;;2.38;1.90;;;18.60;55.00;;;;;;5129763;27;48410;-81
2022/04/16 12:32:26;;;;;;;3.33;2.13;;;18.90;53.10;;;;;;5125399;27;45241;-81
2022/04/16 12:34:53;;;;;;;4.35;2.00;;;17.80;48.80;;;;;;5127999;27;45210;-81
2022/04/16 12:37:20;;;;;;;4.50;2.30;;;16.60;56.60;;;;;;5122228;27;45542;-81
2022/04/16 12:39:48;;;;;;;7.82;1.70;;;16.20;55.30;;;;;;5123989;27;47063;-81
2022/04/16 12:42:16;;;;;;;2.58;1.90;;;17.30;58.90;;;;;;5125948;27;45261;-79
2022/04/16 12:44:43;;;;;;;2.63;1.70;;;17.40;51.00;;;;;;5129113;27;45256;-80
2022/04/16 12:47:10;;;;;;;2.50;1.50;;;17.20;57.80;;;;;;5124854;27;45655;-82
2022/04/16 12:49:36;;;;;;;5.95;2.20;;;17.60;57.00;;;;;;5119190;27;47747;-87
2022/04/16 12:52:04;;;;;;;4.38;1.70;;;17.80;56.40;;;;;;5120944;27;45377;-77
2022/04/16 12:54:30;;;;;;;4.47;2.00;;;17.80;57.60;;;;;;5126884;27;45262;-78
2022/04/16 12:56:57;;;;;;;6.07;2.58;;;18.50;56.30;;;;;;5118202;27;45399;-82
2022/04/16 12:59:25;;;;;;;5.60;1.88;;;17.30;56.70;;;;;;5122665;27;46599;-78
2022/04/16 13:01:52;;;;;;;4.88;2.25;;;17.70;59.40;;;;;;5116680;27;45388;-76
2022/04/16 13:04:19;;;;;;;2.95;1.65;;;18.10;58.20;;;;;;5122599;27;45348;-77
2022/04/16 13:06:46;;;;;;;4.18;1.73;;;18.40;57.20;;;;;;5108552;27;45607;-75
2022/04/16 13:09:13;;;;;;;7.00;2.00;;;18.60;57.20;;;;;;5119125;27;47406;-74
2022/04/16 13:11:41;;;;;;;4.60;1.98;;;18.70;56.10;;;;;;5119858;27;45372;-74
2022/04/16 13:14:08;;;;;;;3.47;1.65;;;18.80;56.00;;;;;;5120540;27;45301;-75
2022/04/16 13:16:36;;;;;;;3.85;1.67;;;18.80;55.60;;;;;;5125109;27;45354;-75
2022/04/16 13:19:03;;;;;;;2.65;1.42;;;18.90;55.00;;;;;;5124564;27;46202;-75
2022/04/16 13:21:30;;;;;;;3.70;1.70;;;18.90;54.90;;;;;;5125300;27;45239;-75